createdAt,value
2022-11-18T00:01:15.160Z,4.30
2022-11-18T00:03:43.443Z,11.40
2022-11-18T00:06:13.252Z,3.87
2022-11-18T00:08:40.157Z,7.13
2022-11-18T00:11:08.735Z,6.67
2022-11-18T00:13:56.165Z,5.60
2022-11-18T00:16:23.311Z,5.30
2022-11-18T00:18:50.457Z,8.43
2022-11-18T00:21:17.112Z,6.00
2022-11-18T00:23:43.732Z,4.03
2022-11-18T00:26:13.579Z,4.43
2022-11-18T00:28:41.262Z,3.80
2022-11-18T00:31:11.263Z,6.77
2022-11-18T00:33:39.013Z,10.40
2022-11-18T00:36:08.228Z,5.70
2022-11-18T00:38:34.930Z,4.13
2022-11-18T00:41:10.083Z,5.40
2022-11-18T00:43:37.016Z,7.63
2022-11-18T00:46:05.238Z,5.67
2022-11-18T00:48:32.280Z,5.87
2022-11-18T00:51:06.754Z,7.20
2022-11-18T00:53:33.354Z,4.00
2022-11-18T00:55:59.964Z,4.00
2022-11-18T00:58:27.625Z,4.27
2022-11-18T01:00:54.294Z,4.00
2022-11-18T01:03:21.154Z,6.57
2022-11-18T01:05:48.339Z,8.47
2022-11-18T01:08:15.383Z,4.47
2022-11-18T01:10:42.093Z,9.13
2022-11-18T01:13:19.753Z,5.33
2022-11-18T01:15:55.736Z,7.00
2022-11-18T01:18:25.332Z,5.70
2022-11-18T01:20:52.438Z,5.27
2022-11-18T01:23:20.373Z,10.30
2022-11-18T01:25:49.089Z,5.70
2022-11-18T01:28:23.300Z,5.07
2022-11-18T01:30:50.846Z,10.90
2022-11-18T01:33:17.616Z,6.97
2022-11-18T01:35:45.105Z,9.37
2022-11-18T01:38:13.503Z,12.10
2022-11-18T01:40:40.543Z,5.67
2022-11-18T01:43:13.972Z,6.17
2022-11-18T01:45:42.480Z,4.17
2022-11-18T01:48:15.466Z,5.20
2022-11-18T01:50:47.485Z,8.93
2022-11-18T01:53:21.820Z,6.73
2022-11-18T01:55:50.650Z,10.53
2022-11-18T01:58:36.906Z,5.70
2022-11-18T02:01:05.677Z,4.50
2022-11-18T02:03:33.224Z,8.93
2022-11-18T02:06:01.389Z,6.30
2022-11-18T02:08:30.449Z,6.57
2022-11-18T02:10:57.364Z,7.00
2022-11-18T02:13:24.546Z,7.20
2022-11-18T02:16:07.267Z,7.07
2022-11-18T02:18:56.258Z,6.30
2022-11-18T02:21:34.872Z,5.10
2022-11-18T02:24:42.390Z,6.47
2022-11-18T02:27:47.226Z,7.13
2022-11-18T02:30:16.521Z,8.07
2022-11-18T02:33:06.437Z,7.60
2022-11-18T02:35:57.954Z,8.30
2022-11-18T02:38:32.437Z,10.73
2022-11-18T02:41:05.481Z,9.93
2022-11-18T02:43:37.289Z,7.03
2022-11-18T02:46:08.961Z,10.80
2022-11-18T02:48:40.720Z,10.10
2022-11-18T02:51:09.662Z,10.77
2022-11-18T02:53:40.260Z,8.37
2022-11-18T02:56:08.645Z,7.20
2022-11-18T02:58:35.253Z,9.80
2022-11-18T03:01:02.139Z,12.53
2022-11-18T03:03:34.809Z,6.30
2022-11-18T03:06:11.191Z,5.40
2022-11-18T03:08:56.353Z,7.47
2022-11-18T03:11:26.640Z,6.70
2022-11-18T03:14:20.027Z,7.17
2022-11-18T03:17:00.418Z,7.57
2022-11-18T03:19:51.252Z,10.13
2022-11-18T03:22:23.285Z,5.47
2022-11-18T03:25:06.107Z,6.57
2022-11-18T03:27:38.708Z,7.80
2022-11-18T03:30:10.371Z,7.50
2022-11-18T03:32:41.740Z,7.20
2022-11-18T03:35:27.848Z,8.57
2022-11-18T03:38:02.691Z,8.50
2022-11-18T03:40:32.308Z,7.30
2022-11-18T03:43:08.942Z,6.13
2022-11-18T03:45:42.303Z,9.70
2022-11-18T03:48:19.558Z,12.27
2022-11-18T03:50:54.566Z,6.60
2022-11-18T03:53:25.800Z,9.33
2022-11-18T03:55:56.396Z,9.50
2022-11-18T03:58:34.424Z,7.33
2022-11-18T04:01:11.255Z,8.23
2022-11-18T04:03:38.336Z,10.17
2022-11-18T04:06:15.381Z,9.93
2022-11-18T04:08:46.013Z,20.03
2022-11-18T04:11:37.011Z,9.50
2022-11-18T04:14:07.068Z,9.10
2022-11-18T04:16:44.662Z,14.37
2022-11-18T04:19:11.764Z,7.83
2022-11-18T04:21:38.356Z,9.30
2022-11-18T04:24:05.223Z,6.60
2022-11-18T04:26:31.796Z,18.00
2022-11-18T04:28:58.544Z,7.83
2022-11-18T04:31:25.160Z,9.83
2022-11-18T04:33:51.750Z,5.93
2022-11-18T04:36:19.780Z,13.63
2022-11-18T04:38:46.432Z,9.03
2022-11-18T04:41:13.091Z,5.40
2022-11-18T04:43:39.764Z,9.30
2022-11-18T04:46:06.396Z,8.67
2022-11-18T04:48:33.236Z,11.60
2022-11-18T04:51:04.469Z,8.50
2022-11-18T04:53:31.083Z,8.63
2022-11-18T04:56:05.745Z,7.63
2022-11-18T04:58:32.645Z,6.30
2022-11-18T05:00:59.289Z,9.37
2022-11-18T05:03:25.915Z,6.87
2022-11-18T05:05:52.537Z,13.03
2022-11-18T05:08:19.162Z,7.90
2022-11-18T05:10:45.817Z,7.20
2022-11-18T05:13:13.109Z,7.93
2022-11-18T05:15:39.742Z,9.30
2022-11-18T05:18:06.402Z,7.60
2022-11-18T05:20:35.144Z,8.37
2022-11-18T05:23:05.451Z,7.30
2022-11-18T05:25:32.045Z,11.63
2022-11-18T05:27:58.653Z,7.33
2022-11-18T05:30:25.246Z,8.50
2022-11-18T05:32:51.847Z,6.13
2022-11-18T05:35:18.489Z,9.67
2022-11-18T05:37:45.076Z,7.67
2022-11-18T05:40:11.774Z,7.37
2022-11-18T05:42:57.101Z,8.90
2022-11-18T05:45:23.685Z,10.60
2022-11-18T05:48:04.251Z,10.47
2022-11-18T05:50:33.938Z,7.73
2022-11-18T05:53:01.422Z,7.77
2022-11-18T05:55:40.507Z,8.37
2022-11-18T05:58:07.092Z,13.87
2022-11-18T06:00:34.048Z,7.53
2022-11-18T06:03:01.353Z,10.10
2022-11-18T06:05:28.041Z,6.27
2022-11-18T06:07:57.024Z,9.77
2022-11-18T06:10:35.444Z,12.90
2022-11-18T06:13:07.457Z,7.83
2022-11-18T06:15:38.597Z,9.97
2022-11-18T06:18:10.655Z,6.90
2022-11-18T06:20:39.265Z,6.67
2022-11-18T06:23:06.006Z,6.80
2022-11-18T06:25:33.566Z,15.20
2022-11-18T06:28:02.199Z,12.93
2022-11-18T06:30:28.795Z,7.33
2022-11-18T06:32:55.427Z,9.83
2022-11-18T06:35:22.155Z,6.80
2022-11-18T06:37:48.791Z,6.97
2022-11-18T06:40:15.737Z,8.17
2022-11-18T06:43:01.053Z,9.10
2022-11-18T06:45:28.025Z,9.93
2022-11-18T06:47:58.799Z,8.43
2022-11-18T06:50:25.568Z,7.60
2022-11-18T06:52:52.495Z,12.87
2022-11-18T06:55:19.432Z,10.50
2022-11-18T06:57:46.183Z,10.20
2022-11-18T07:00:13.601Z,6.83
2022-11-18T07:02:40.245Z,9.80
2022-11-18T07:05:07.177Z,9.70
2022-11-18T07:07:41.813Z,10.20
2022-11-18T07:10:09.371Z,8.13
2022-11-18T07:12:35.992Z,7.57
2022-11-18T07:15:02.597Z,8.10
2022-11-18T07:17:30.952Z,10.70
2022-11-18T07:19:57.711Z,10.80
2022-11-18T07:22:24.291Z,8.50
2022-11-18T07:24:50.896Z,11.03
2022-11-18T07:27:17.470Z,8.97
2022-11-18T07:29:44.078Z,13.73
2022-11-18T07:32:10.691Z,17.83
2022-11-18T07:34:37.332Z,13.50
2022-11-18T07:37:04.045Z,10.30
2022-11-18T07:39:30.645Z,9.07
2022-11-18T07:41:57.226Z,8.73
2022-11-18T07:44:23.826Z,8.17
2022-11-18T07:46:50.404Z,9.10
2022-11-18T07:49:17.369Z,11.93
2022-11-18T07:51:44.126Z,11.10
2022-11-18T07:54:13.272Z,11.43
2022-11-18T07:56:39.934Z,6.63
2022-11-18T07:59:07.481Z,7.33
2022-11-18T08:01:34.428Z,9.90
2022-11-18T08:04:06.924Z,9.93
2022-11-18T08:06:34.847Z,10.43
2022-11-18T08:09:02.188Z,11.67
2022-11-18T08:11:29.072Z,11.00
2022-11-18T08:13:55.660Z,5.73
2022-11-18T08:16:24.268Z,9.93
2022-11-18T08:18:51.787Z,9.73
2022-11-18T08:21:21.060Z,8.43
2022-11-18T08:23:56.098Z,9.00
2022-11-18T08:26:25.089Z,6.10
2022-11-18T08:28:52.156Z,6.53
2022-11-18T08:31:25.561Z,7.67
2022-11-18T08:34:03.324Z,7.83
2022-11-18T08:36:32.190Z,6.40
2022-11-18T08:39:00.945Z,7.93
2022-11-18T08:41:32.049Z,7.20
2022-11-18T08:43:59.102Z,9.27
2022-11-18T08:46:25.770Z,7.47
2022-11-18T08:48:52.355Z,9.17
2022-11-18T08:51:18.982Z,14.07
2022-11-18T08:53:45.581Z,10.37
2022-11-18T08:56:17.891Z,7.33
2022-11-18T08:58:45.097Z,7.20
2022-11-18T09:01:12.414Z,9.97
2022-11-18T09:03:39.115Z,10.40
2022-11-18T09:06:11.093Z,9.67
2022-11-18T09:08:38.003Z,15.87
2022-11-18T09:11:14.744Z,12.17
2022-11-18T09:16:30.293Z,9.10
2022-11-18T09:18:58.069Z,10.00
2022-11-18T09:21:25.677Z,7.87
2022-11-18T09:23:52.604Z,10.23
2022-11-18T09:26:22.537Z,12.37
2022-11-18T09:28:53.028Z,7.70
2022-11-18T09:31:19.679Z,14.47
2022-11-18T09:33:46.308Z,9.00
2022-11-18T09:36:15.629Z,8.03
2022-11-18T09:38:42.320Z,13.83
2022-11-18T09:41:23.489Z,10.33
2022-11-18T09:43:58.953Z,8.00
2022-11-18T09:46:38.329Z,10.37
2022-11-18T09:49:14.152Z,9.57
2022-11-18T09:51:51.671Z,10.17
2022-11-18T09:54:35.666Z,7.57
2022-11-18T09:57:02.776Z,10.77
2022-11-18T09:59:33.012Z,9.40
2022-11-18T10:02:37.988Z,11.43
2022-11-18T10:05:19.447Z,7.07
2022-11-18T10:08:04.897Z,10.57
2022-11-18T10:10:45.797Z,8.10
2022-11-18T10:13:17.263Z,11.47
2022-11-18T10:15:53.163Z,8.70
2022-11-18T10:19:00.620Z,10.23
2022-11-18T10:21:53.964Z,11.37
2022-11-18T10:24:24.686Z,12.10
2022-11-18T10:26:59.954Z,12.27
2022-11-18T10:29:26.840Z,5.93
2022-11-18T10:32:16.399Z,7.67
2022-11-18T10:34:54.547Z,13.10
2022-11-18T10:38:00.329Z,7.40
2022-11-18T10:40:26.629Z,7.80
2022-11-18T10:42:53.433Z,7.03
2022-11-18T10:45:23.004Z,9.17
2022-11-18T10:48:14.626Z,9.33
2022-11-18T10:50:43.560Z,6.80
2022-11-18T10:53:33.360Z,7.43
2022-11-18T10:56:09.326Z,6.00
2022-11-18T10:58:40.974Z,4.87
2022-11-18T11:01:27.989Z,6.77
2022-11-18T11:04:24.485Z,8.47
2022-11-18T11:06:51.137Z,9.77
2022-11-18T11:09:29.789Z,12.03
2022-11-18T11:11:58.678Z,5.67
2022-11-18T11:14:50.635Z,5.37
2022-11-18T11:17:32.407Z,6.13
2022-11-18T11:20:23.596Z,8.53
2022-11-18T11:22:50.325Z,7.70
2022-11-18T11:25:24.067Z,10.00
2022-11-18T11:28:17.573Z,13.00
2022-11-18T11:31:21.316Z,6.67
2022-11-18T11:34:11.587Z,10.17
2022-11-18T11:36:51.750Z,7.10
2022-11-18T11:39:31.559Z,10.20
2022-11-18T11:42:40.423Z,8.20
2022-11-18T11:45:18.080Z,11.47
2022-11-18T11:48:14.713Z,7.90
2022-11-18T11:51:05.081Z,8.57
2022-11-18T11:53:52.756Z,6.73
2022-11-18T11:56:41.455Z,4.93
2022-11-18T11:59:43.000Z,10.60
2022-11-18T12:02:49.109Z,9.60
2022-11-18T12:05:34.266Z,6.40
2022-11-18T12:08:22.773Z,5.30
2022-11-18T12:10:49.369Z,8.20
2022-11-18T12:13:26.726Z,7.00
2022-11-18T12:16:21.216Z,5.90
2022-11-18T12:19:01.257Z,7.57
2022-11-18T12:21:46.038Z,7.53
2022-11-18T12:24:39.093Z,10.63
2022-11-18T12:27:13.012Z,5.60
2022-11-18T12:29:42.004Z,10.10
2022-11-18T12:32:26.750Z,12.67
2022-11-18T12:35:05.877Z,10.60
2022-11-18T12:37:32.444Z,8.07
2022-11-18T12:40:00.546Z,42.17
2022-11-18T12:43:02.377Z,29.77
2022-11-18T12:45:41.006Z,8.37
2022-11-18T12:48:28.807Z,9.63
2022-11-18T12:51:00.949Z,7.33
2022-11-18T12:53:33.052Z,15.07
2022-11-18T12:55:59.740Z,5.37
2022-11-18T12:58:27.037Z,9.07
2022-11-18T13:01:12.713Z,8.90
2022-11-18T13:03:39.772Z,6.50
2022-11-18T13:06:28.717Z,6.43
2022-11-18T13:09:02.047Z,7.47
2022-11-18T13:11:46.558Z,5.00
2022-11-18T13:14:45.681Z,8.10
2022-11-18T13:17:58.405Z,8.63
2022-11-18T13:20:35.403Z,6.87
2022-11-18T13:23:30.231Z,6.47
2022-11-18T13:26:05.728Z,6.13
2022-11-18T13:28:45.130Z,7.10
2022-11-18T13:31:38.856Z,5.30
2022-11-18T13:34:17.898Z,5.93
2022-11-18T13:36:46.248Z,6.07
2022-11-18T13:39:27.200Z,10.93
2022-11-18T13:42:14.310Z,8.23
2022-11-18T13:44:45.848Z,8.43
2022-11-18T13:47:22.206Z,11.87
2022-11-18T13:49:54.328Z,9.37
2022-11-18T13:52:32.559Z,7.60
2022-11-18T13:55:01.173Z,9.40
2022-11-18T13:57:29.321Z,15.40
2022-11-18T14:00:00.489Z,10.00
2022-11-18T14:02:27.240Z,7.40
2022-11-18T14:04:56.963Z,12.37
2022-11-18T14:07:30.010Z,9.93
2022-11-18T14:10:08.543Z,7.23
2022-11-18T14:12:36.481Z,6.80
2022-11-18T14:15:21.133Z,8.33
2022-11-18T14:17:54.713Z,6.50
2022-11-18T14:20:22.270Z,9.73
2022-11-18T14:22:54.484Z,10.63
2022-11-18T14:25:31.714Z,11.97
2022-11-18T14:28:30.480Z,13.37
2022-11-18T14:31:01.369Z,7.63
2022-11-18T14:33:29.382Z,8.60
2022-11-18T14:36:03.336Z,7.40
2022-11-18T14:38:48.094Z,7.60
2022-11-18T14:41:43.837Z,11.90
2022-11-18T14:44:13.110Z,6.20
2022-11-18T14:46:41.660Z,13.73
2022-11-18T14:49:14.656Z,7.70
2022-11-18T14:51:41.323Z,7.37
2022-11-18T14:54:13.475Z,6.93
2022-11-18T14:56:40.398Z,11.50
2022-11-18T14:59:07.107Z,8.50
2022-11-18T15:01:34.003Z,13.07
2022-11-18T15:04:00.692Z,6.30
2022-11-18T15:06:28.408Z,10.80
2022-11-18T15:08:55.065Z,14.40
2022-11-18T15:11:21.717Z,17.97
2022-11-18T15:13:48.943Z,18.23
2022-11-18T15:16:25.256Z,10.93
2022-11-18T15:18:54.789Z,15.57
2022-11-18T15:21:21.726Z,14.23
2022-11-18T15:23:48.390Z,12.00
2022-11-18T15:26:22.132Z,15.47
2022-11-18T15:28:49.872Z,7.90
2022-11-18T15:31:17.706Z,9.03
2022-11-18T15:33:45.369Z,7.97
2022-11-18T15:36:18.301Z,8.67
2022-11-18T15:38:45.589Z,10.47
2022-11-18T15:41:35.412Z,8.63
2022-11-18T15:44:03.079Z,8.50
2022-11-18T15:46:30.248Z,10.23
2022-11-18T15:48:58.340Z,12.43
2022-11-18T15:51:26.802Z,13.47
2022-11-18T15:53:54.296Z,8.73
2022-11-18T15:56:21.099Z,7.50
2022-11-18T15:59:05.147Z,8.83
2022-11-18T16:01:37.777Z,12.03
2022-11-18T16:04:06.609Z,11.83
2022-11-18T16:06:33.397Z,11.43
2022-11-18T16:09:00.830Z,12.23
2022-11-18T16:11:47.395Z,12.13
2022-11-18T16:14:16.371Z,14.63
2022-11-18T16:16:45.114Z,23.47
2022-11-18T16:19:15.564Z,17.43
2022-11-18T16:21:44.229Z,10.27
2022-11-18T16:24:13.192Z,16.13
2022-11-18T16:26:39.926Z,17.20
2022-11-18T16:29:07.235Z,12.93
2022-11-18T16:31:40.428Z,12.77
2022-11-18T16:34:12.967Z,8.43
2022-11-18T16:36:42.396Z,14.27
2022-11-18T16:39:14.636Z,11.70
2022-11-18T16:41:42.434Z,12.70
2022-11-18T16:44:11.659Z,13.90
2022-11-18T16:46:40.348Z,19.20
2022-11-18T16:49:10.710Z,22.83
2022-11-18T16:51:37.346Z,20.60
2022-11-18T16:54:06.995Z,19.17
2022-11-18T16:56:35.518Z,20.83
2022-11-18T16:59:05.771Z,13.13
2022-11-18T17:01:33.560Z,13.57
2022-11-18T17:04:01.052Z,9.13
2022-11-18T17:06:29.729Z,13.70
2022-11-18T17:08:56.385Z,10.90
2022-11-18T17:11:23.037Z,13.60
2022-11-18T17:13:54.851Z,12.17
2022-11-18T17:16:25.807Z,16.33
2022-11-18T17:18:58.956Z,15.80
2022-11-18T17:21:28.081Z,23.67
2022-11-18T17:23:55.567Z,19.63
2022-11-18T17:26:25.316Z,17.87
2022-11-18T17:28:52.190Z,20.33
2022-11-18T17:31:21.241Z,18.87
2022-11-18T17:33:49.401Z,17.80
2022-11-18T17:36:19.936Z,19.77
2022-11-18T17:38:49.630Z,18.40
2022-11-18T17:41:37.125Z,17.23
2022-11-18T17:44:05.789Z,16.03
2022-11-18T17:46:37.818Z,17.13
2022-11-18T17:49:07.641Z,17.80
2022-11-18T17:51:34.400Z,17.07
2022-11-18T17:54:01.087Z,18.23
2022-11-18T17:56:28.113Z,15.93
2022-11-18T17:58:54.720Z,20.00
2022-11-18T18:01:22.623Z,17.03
2022-11-18T18:03:49.385Z,19.87
2022-11-18T18:06:16.553Z,21.57
2022-11-18T18:08:43.179Z,21.77
2022-11-18T18:11:18.436Z,19.00
2022-11-18T18:14:04.557Z,15.93
2022-11-18T18:16:32.627Z,18.23
2022-11-18T18:19:01.100Z,21.10
2022-11-18T18:21:28.513Z,19.80
2022-11-18T18:23:55.800Z,28.33
2022-11-18T18:26:28.103Z,19.00
2022-11-18T18:28:58.390Z,28.33
2022-11-18T18:31:25.012Z,31.53
2022-11-18T18:33:51.622Z,33.77
2022-11-18T18:36:19.173Z,24.00
2022-11-18T18:38:46.732Z,25.37
2022-11-18T18:41:18.971Z,28.53
2022-11-18T18:43:46.143Z,23.80
2022-11-18T18:46:33.589Z,25.77
2022-11-18T18:49:07.603Z,24.87
2022-11-18T18:51:42.311Z,26.47
2022-11-18T18:54:14.390Z,25.07
2022-11-18T18:56:41.438Z,19.50
2022-11-18T18:59:08.638Z,25.07
2022-11-18T19:01:35.786Z,21.93
2022-11-18T19:04:04.818Z,40.50
2022-11-18T19:06:59.035Z,31.90
2022-11-18T19:09:23.512Z,25.63
2022-11-18T19:12:09.561Z,29.33
2022-11-18T19:14:36.344Z,29.10
2022-11-18T19:17:10.165Z,26.20
2022-11-18T19:19:57.074Z,20.90
2022-11-18T19:22:23.976Z,23.30
2022-11-18T19:24:51.234Z,33.40
2022-11-18T19:27:18.903Z,25.63
2022-11-18T19:29:45.613Z,31.10
2022-11-18T19:32:12.339Z,28.00
2022-11-18T19:34:38.970Z,26.90
2022-11-18T19:37:05.593Z,30.73
2022-11-18T19:39:33.400Z,24.13
2022-11-18T19:42:00.015Z,26.03
2022-11-18T19:44:26.975Z,23.00
2022-11-18T19:46:53.610Z,30.33
2022-11-18T19:49:20.724Z,34.77
2022-11-18T19:51:47.592Z,33.07
2022-11-18T19:54:14.182Z,42.90
2022-11-18T19:56:40.902Z,30.27
2022-11-18T19:59:07.626Z,27.40
2022-11-18T20:01:34.300Z,34.13
2022-11-18T20:04:02.847Z,27.30
2022-11-18T20:06:29.652Z,31.63
2022-11-18T20:08:56.868Z,24.03
2022-11-18T20:11:24.361Z,24.87
2022-11-18T20:13:51.265Z,27.63
2022-11-18T20:16:20.474Z,29.33
2022-11-18T20:18:48.674Z,27.20
2022-11-18T20:21:20.490Z,28.50
2022-11-18T20:23:48.441Z,22.63
2022-11-18T20:26:17.217Z,23.70
2022-11-18T20:28:45.524Z,20.13
2022-11-18T20:31:15.547Z,19.27
2022-11-18T20:33:44.443Z,20.97
2022-11-18T20:36:13.648Z,20.80
2022-11-18T20:38:41.272Z,21.67
2022-11-18T20:41:10.636Z,20.33
2022-11-18T20:43:38.668Z,22.37
2022-11-18T20:46:07.499Z,25.37
2022-11-18T20:48:35.568Z,25.60
2022-11-18T20:51:26.870Z,25.20
2022-11-18T20:53:55.249Z,22.63
2022-11-18T20:56:24.571Z,21.70
2022-11-18T20:58:51.396Z,24.13
2022-11-18T21:01:23.957Z,24.60
2022-11-18T21:03:53.353Z,20.40
2022-11-18T21:06:22.189Z,24.83
2022-11-18T21:08:48.863Z,30.47
2022-11-18T21:11:15.847Z,26.23
2022-11-18T21:14:01.338Z,24.00
2022-11-18T21:16:28.331Z,30.33
2022-11-18T21:18:55.023Z,25.47
2022-11-18T21:21:40.389Z,21.93
2022-11-18T21:24:08.226Z,20.73
2022-11-18T21:26:36.583Z,21.17
2022-11-18T21:29:05.923Z,24.40
2022-11-18T21:31:32.966Z,24.27
2022-11-18T21:33:59.980Z,27.57
2022-11-18T21:36:28.153Z,26.53
2022-11-18T21:38:56.541Z,22.47
2022-11-18T21:41:23.269Z,21.17
2022-11-18T21:44:05.099Z,24.20
2022-11-18T21:46:34.704Z,25.40
2022-11-18T21:49:02.233Z,23.20
2022-11-18T21:51:31.169Z,22.83
2022-11-18T21:53:58.439Z,22.90
2022-11-18T21:56:28.677Z,25.40
2022-11-18T21:58:56.046Z,27.60
2022-11-18T22:01:25.102Z,25.60
2022-11-18T22:03:55.824Z,23.93
2022-11-18T22:06:24.616Z,23.50
2022-11-18T22:08:52.312Z,22.93
2022-11-18T22:11:22.631Z,22.63
2022-11-18T22:13:51.241Z,21.17
2022-11-18T22:16:20.166Z,21.67
2022-11-18T22:18:53.013Z,23.77
2022-11-18T22:21:22.007Z,23.57
2022-11-18T22:23:48.668Z,27.07
2022-11-18T22:26:20.257Z,23.43
2022-11-18T22:28:47.778Z,23.40
2022-11-18T22:31:16.478Z,22.50
2022-11-18T22:33:43.251Z,22.13
2022-11-18T22:36:13.361Z,20.77
2022-11-18T22:38:41.153Z,27.80
2022-11-18T22:41:32.608Z,28.50
2022-11-18T22:44:04.061Z,30.90
2022-11-18T22:46:34.834Z,28.20
2022-11-18T22:49:01.547Z,26.20
2022-11-18T22:51:28.317Z,27.57
2022-11-18T22:54:15.866Z,28.23
2022-11-18T22:56:41.926Z,31.20
2022-11-18T22:59:11.199Z,26.80
2022-11-18T23:01:38.082Z,25.93
2022-11-18T23:04:04.832Z,26.93
2022-11-18T23:06:31.435Z,28.00
2022-11-18T23:08:58.305Z,31.20
2022-11-18T23:11:43.434Z,27.90
2022-11-18T23:14:11.180Z,28.20
2022-11-18T23:16:40.593Z,31.47
2022-11-18T23:19:12.918Z,28.23
2022-11-18T23:21:44.535Z,35.60
2022-11-18T23:24:16.028Z,30.40
2022-11-18T23:26:43.203Z,26.60
2022-11-18T23:29:11.421Z,29.90
2022-11-18T23:31:44.099Z,30.53
2022-11-18T23:34:12.763Z,30.07
2022-11-18T23:36:39.864Z,27.53
2022-11-18T23:39:06.564Z,27.03
2022-11-18T23:41:33.338Z,30.63
2022-11-18T23:43:59.996Z,29.80
2022-11-18T23:46:27.589Z,31.27
2022-11-18T23:48:54.241Z,29.47
2022-11-18T23:51:22.169Z,32.50
2022-11-18T23:53:54.435Z,27.60
2022-11-18T23:56:23.063Z,26.73
2022-11-18T23:58:52.196Z,28.17
